sensor_id;sensor_type;location;lat;lon;timestamp;pressure;altitude;pressure_sealevel;temperature;humidity
34742;BME280;20968;42.696;23.360;2023-03-20T00:01:56;95585.22;;;10.80;52.40
34742;BME280;20968;42.696;23.360;2023-03-20T00:04:22;95573.16;;;10.77;52.28
34742;BME280;20968;42.696;23.360;2023-03-20T00:06:47;95571.16;;;10.78;52.47
34742;BME280;20968;42.696;23.360;2023-03-20T00:09:13;95564.00;;;10.71;52.75
34742;BME280;20968;42.696;23.360;2023-03-20T00:11:56;95574.09;;;10.74;52.45
34742;BME280;20968;42.696;23.360;2023-03-20T00:14:22;95568.94;;;10.67;52.30
34742;BME280;20968;42.696;23.360;2023-03-20T00:16:49;95567.13;;;10.64;52.47
34742;BME280;20968;42.696;23.360;2023-03-20T00:19:27;95578.91;;;10.65;52.73
34742;BME280;20968;42.696;23.360;2023-03-20T00:21:56;95561.97;;;10.57;52.45
34742;BME280;20968;42.696;23.360;2023-03-20T00:24:22;95572.69;;;10.55;53.13
34742;BME280;20968;42.696;23.360;2023-03-20T00:26:49;95560.03;;;10.49;53.02
34742;BME280;20968;42.696;23.360;2023-03-20T00:29:41;95561.75;;;10.46;52.71
34742;BME280;20968;42.696;23.360;2023-03-20T00:32:10;95564.75;;;10.48;53.03
34742;BME280;20968;42.696;23.360;2023-03-20T00:34:39;95571.03;;;10.49;53.09
34742;BME280;20968;42.696;23.360;2023-03-20T00:37:05;95562.09;;;10.39;53.22
34742;BME280;20968;42.696;23.360;2023-03-20T00:39:31;95557.06;;;10.29;53.52
34742;BME280;20968;42.696;23.360;2023-03-20T00:42:03;95555.84;;;10.30;53.38
34742;BME280;20968;42.696;23.360;2023-03-20T00:44:35;95557.97;;;10.35;53.15
34742;BME280;20968;42.696;23.360;2023-03-20T00:47:11;95552.91;;;10.33;53.54
34742;BME280;20968;42.696;23.360;2023-03-20T00:49:37;95551.47;;;10.23;53.64
34742;BME280;20968;42.696;23.360;2023-03-20T00:52:04;95551.97;;;10.13;53.07
34742;BME280;20968;42.696;23.360;2023-03-20T00:54:30;95554.25;;;10.14;54.02
34742;BME280;20968;42.696;23.360;2023-03-20T00:57:10;95554.47;;;10.02;54.12
34742;BME280;20968;42.696;23.360;2023-03-20T00:59:41;95546.97;;;10.03;54.41
34742;BME280;20968;42.696;23.360;2023-03-20T01:02:11;95554.94;;;10.01;53.71
34742;BME280;20968;42.696;23.360;2023-03-20T01:04:39;95537.38;;;9.89;54.45
34742;BME280;20968;42.696;23.360;2023-03-20T01:07:11;95535.06;;;9.88;54.46
34742;BME280;20968;42.696;23.360;2023-03-20T01:09:37;95533.56;;;9.87;54.42
34742;BME280;20968;42.696;23.360;2023-03-20T01:12:03;95536.59;;;9.89;54.50
34742;BME280;20968;42.696;23.360;2023-03-20T01:14:29;95521.97;;;9.83;54.81
34742;BME280;20968;42.696;23.360;2023-03-20T01:16:55;95534.16;;;9.91;53.70
34742;BME280;20968;42.696;23.360;2023-03-20T01:19:20;95524.25;;;9.84;54.25
34742;BME280;20968;42.696;23.360;2023-03-20T01:21:46;95517.69;;;9.82;54.09
34742;BME280;20968;42.696;23.360;2023-03-20T01:24:11;95531.56;;;9.87;54.70
34742;BME280;20968;42.696;23.360;2023-03-20T01:26:39;95520.13;;;9.80;54.36
34742;BME280;20968;42.696;23.360;2023-03-20T01:31:44;95521.56;;;9.75;54.20
34742;BME280;20968;42.696;23.360;2023-03-20T01:34:10;95534.81;;;9.77;55.02
34742;BME280;20968;42.696;23.360;2023-03-20T01:36:36;95529.31;;;9.77;54.96
34742;BME280;20968;42.696;23.360;2023-03-20T01:39:02;95529.03;;;9.75;55.03
34742;BME280;20968;42.696;23.360;2023-03-20T01:41:28;95529.50;;;9.73;54.57
34742;BME280;20968;42.696;23.360;2023-03-20T01:43:54;95532.09;;;9.68;55.42
34742;BME280;20968;42.696;23.360;2023-03-20T01:46:29;95540.78;;;9.75;54.97
34742;BME280;20968;42.696;23.360;2023-03-20T01:51:55;95547.38;;;9.69;55.48
34742;BME280;20968;42.696;23.360;2023-03-20T01:54:24;95532.25;;;9.64;54.92
34742;BME280;20968;42.696;23.360;2023-03-20T01:57:11;95542.63;;;9.69;54.65
34742;BME280;20968;42.696;23.360;2023-03-20T02:00:07;95541.91;;;9.60;54.76
34742;BME280;20968;42.696;23.360;2023-03-20T02:02:35;95537.94;;;9.61;54.94
34742;BME280;20968;42.696;23.360;2023-03-20T02:05:06;95534.56;;;9.57;54.87
34742;BME280;20968;42.696;23.360;2023-03-20T02:07:33;95533.06;;;9.56;55.31
34742;BME280;20968;42.696;23.360;2023-03-20T02:10:02;95526.94;;;9.52;55.36
34742;BME280;20968;42.696;23.360;2023-03-20T02:12:30;95535.97;;;9.52;54.72
34742;BME280;20968;42.696;23.360;2023-03-20T02:14:55;95528.50;;;9.44;54.80
34742;BME280;20968;42.696;23.360;2023-03-20T02:17:23;95523.31;;;9.37;55.32
34742;BME280;20968;42.696;23.360;2023-03-20T02:25:33;95536.00;;;9.34;55.26
34742;BME280;20968;42.696;23.360;2023-03-20T02:36:23;95540.13;;;9.30;55.25
34742;BME280;20968;42.696;23.360;2023-03-20T02:39:15;95542.72;;;9.25;55.31
34742;BME280;20968;42.696;23.360;2023-03-20T02:44:40;95518.97;;;9.13;55.40
34742;BME280;20968;42.696;23.360;2023-03-20T02:47:15;95521.22;;;9.14;55.57
34742;BME280;20968;42.696;23.360;2023-03-20T02:55:46;95516.81;;;9.08;56.13
34742;BME280;20968;42.696;23.360;2023-03-20T02:58:22;95524.44;;;9.13;56.02
34742;BME280;20968;42.696;23.360;2023-03-20T03:03:31;95528.88;;;9.10;55.89
34742;BME280;20968;42.696;23.360;2023-03-20T03:06:02;95528.09;;;9.10;55.61
34742;BME280;20968;42.696;23.360;2023-03-20T03:08:35;95527.34;;;9.09;55.76
34742;BME280;20968;42.696;23.360;2023-03-20T03:11:07;95525.50;;;9.06;55.83
34742;BME280;20968;42.696;23.360;2023-03-20T03:13:41;95520.03;;;9.06;55.29
34742;BME280;20968;42.696;23.360;2023-03-20T03:16:14;95522.03;;;9.06;55.51
34742;BME280;20968;42.696;23.360;2023-03-20T03:18:42;95520.66;;;9.01;55.29
34742;BME280;20968;42.696;23.360;2023-03-20T03:21:10;95514.84;;;8.99;55.08
34742;BME280;20968;42.696;23.360;2023-03-20T03:23:44;95512.41;;;9.01;55.87
34742;BME280;20968;42.696;23.360;2023-03-20T03:26:27;95512.41;;;9.01;55.38
34742;BME280;20968;42.696;23.360;2023-03-20T03:29:07;95531.00;;;8.97;55.70
34742;BME280;20968;42.696;23.360;2023-03-20T03:31:38;95527.03;;;8.89;55.64
34742;BME280;20968;42.696;23.360;2023-03-20T03:34:04;95536.22;;;8.95;55.81
34742;BME280;20968;42.696;23.360;2023-03-20T03:37:10;95518.81;;;8.89;56.33
34742;BME280;20968;42.696;23.360;2023-03-20T03:39:54;95532.22;;;8.96;56.17
34742;BME280;20968;42.696;23.360;2023-03-20T03:42:32;95532.69;;;8.95;56.67
34742;BME280;20968;42.696;23.360;2023-03-20T03:45:07;95533.47;;;8.95;55.92
34742;BME280;20968;42.696;23.360;2023-03-20T03:47:39;95531.47;;;8.96;55.38
34742;BME280;20968;42.696;23.360;2023-03-20T03:50:13;95511.19;;;8.84;55.83
34742;BME280;20968;42.696;23.360;2023-03-20T03:52:42;95529.94;;;8.95;56.10
34742;BME280;20968;42.696;23.360;2023-03-20T03:55:26;95527.19;;;8.95;55.86
34742;BME280;20968;42.696;23.360;2023-03-20T03:58:02;95521.28;;;8.87;56.46
34742;BME280;20968;42.696;23.360;2023-03-20T04:00:31;95523.41;;;8.92;56.48
34742;BME280;20968;42.696;23.360;2023-03-20T04:03:00;95520.97;;;8.85;55.80
34742;BME280;20968;42.696;23.360;2023-03-20T04:05:30;95506.75;;;8.78;56.57
34742;BME280;20968;42.696;23.360;2023-03-20T04:07:58;95512.56;;;8.80;56.69
34742;BME280;20968;42.696;23.360;2023-03-20T04:10:25;95516.09;;;8.80;55.92
34742;BME280;20968;42.696;23.360;2023-03-20T04:12:51;95517.59;;;8.81;55.87
34742;BME280;20968;42.696;23.360;2023-03-20T04:15:16;95506.63;;;8.72;56.05
34742;BME280;20968;42.696;23.360;2023-03-20T04:17:43;95506.31;;;8.70;55.88
34742;BME280;20968;42.696;23.360;2023-03-20T04:20:09;95505.69;;;8.66;56.45
34742;BME280;20968;42.696;23.360;2023-03-20T04:22:35;95504.78;;;8.60;56.26
34742;BME280;20968;42.696;23.360;2023-03-20T04:25:02;95493.38;;;8.53;56.03
34742;BME280;20968;42.696;23.360;2023-03-20T04:27:28;95499.44;;;8.57;56.56
34742;BME280;20968;42.696;23.360;2023-03-20T04:29:53;95502.97;;;8.57;56.50
34742;BME280;20968;42.696;23.360;2023-03-20T04:32:19;95502.81;;;8.61;56.33
34742;BME280;20968;42.696;23.360;2023-03-20T04:34:45;95509.97;;;8.58;55.98
34742;BME280;20968;42.696;23.360;2023-03-20T04:37:11;95501.88;;;8.55;56.15
34742;BME280;20968;42.696;23.360;2023-03-20T04:39:36;95514.25;;;8.59;55.93
34742;BME280;20968;42.696;23.360;2023-03-20T04:42:03;95514.53;;;8.52;55.76
34742;BME280;20968;42.696;23.360;2023-03-20T04:44:29;95512.41;;;8.48;55.77
34742;BME280;20968;42.696;23.360;2023-03-20T04:46:55;95517.56;;;8.37;55.82
34742;BME280;20968;42.696;23.360;2023-03-20T04:49:20;95519.72;;;8.33;56.18
34742;BME280;20968;42.696;23.360;2023-03-20T04:51:46;95525.50;;;8.35;56.49
34742;BME280;20968;42.696;23.360;2023-03-20T04:54:11;95537.72;;;8.43;56.86
34742;BME280;20968;42.696;23.360;2023-03-20T04:56:37;95524.72;;;8.34;56.20
34742;BME280;20968;42.696;23.360;2023-03-20T04:59:02;95538.31;;;8.38;56.28
34742;BME280;20968;42.696;23.360;2023-03-20T05:01:27;95535.72;;;8.34;56.61
34742;BME280;20968;42.696;23.360;2023-03-20T05:03:53;95526.41;;;8.32;56.13
34742;BME280;20968;42.696;23.360;2023-03-20T05:06:27;95530.69;;;8.33;56.96
34742;BME280;20968;42.696;23.360;2023-03-20T05:08:53;95532.97;;;8.34;56.46
34742;BME280;20968;42.696;23.360;2023-03-20T05:11:18;95546.22;;;8.45;57.50
34742;BME280;20968;42.696;23.360;2023-03-20T05:13:44;95552.53;;;8.54;56.82
34742;BME280;20968;42.696;23.360;2023-03-20T05:16:10;95547.81;;;8.63;56.79
34742;BME280;20968;42.696;23.360;2023-03-20T05:18:35;95530.69;;;8.59;57.08
34742;BME280;20968;42.696;23.360;2023-03-20T05:21:01;95545.22;;;8.69;57.22
34742;BME280;20968;42.696;23.360;2023-03-20T05:23:27;95549.19;;;8.77;56.77
34742;BME280;20968;42.696;23.360;2023-03-20T05:25:52;95540.75;;;9.25;72.30
34742;BME280;20968;42.696;23.360;2023-03-20T05:28:17;95556.69;;;10.12;67.19
34742;BME280;20968;42.696;23.360;2023-03-20T05:30:43;95549.16;;;10.54;65.81
34742;BME280;20968;42.696;23.360;2023-03-20T05:33:08;95545.69;;;10.68;59.48
34742;BME280;20968;42.696;23.360;2023-03-20T05:35:34;95547.91;;;10.55;55.79
34742;BME280;20968;42.696;23.360;2023-03-20T05:37:59;95563.97;;;10.57;54.21
34742;BME280;20968;42.696;23.360;2023-03-20T05:40:25;95566.91;;;10.53;53.74
34742;BME280;20968;42.696;23.360;2023-03-20T05:42:50;95557.81;;;10.38;53.38
34742;BME280;20968;42.696;23.360;2023-03-20T05:45:17;95565.75;;;10.36;53.23
34742;BME280;20968;42.696;23.360;2023-03-20T05:47:46;95573.97;;;10.45;52.71
34742;BME280;20968;42.696;23.360;2023-03-20T05:50:11;95573.97;;;10.45;53.27
34742;BME280;20968;42.696;23.360;2023-03-20T05:52:37;95575.53;;;10.37;53.43
34742;BME280;20968;42.696;23.360;2023-03-20T05:55:03;95572.97;;;10.34;52.64
34742;BME280;20968;42.696;23.360;2023-03-20T05:57:28;95578.47;;;10.34;52.87
34742;BME280;20968;42.696;23.360;2023-03-20T05:59:54;95576.03;;;10.36;53.03
34742;BME280;20968;42.696;23.360;2023-03-20T06:02:20;95574.84;;;10.28;52.45
34742;BME280;20968;42.696;23.360;2023-03-20T06:04:48;95566.41;;;10.31;53.13
34742;BME280;20968;42.696;23.360;2023-03-20T06:07:14;95558.91;;;10.32;53.39
34742;BME280;20968;42.696;23.360;2023-03-20T06:09:41;95575.59;;;10.28;53.05
34742;BME280;20968;42.696;23.360;2023-03-20T06:12:07;95565.97;;;10.24;53.20
34742;BME280;20968;42.696;23.360;2023-03-20T06:14:35;95570.25;;;10.25;53.23
34742;BME280;20968;42.696;23.360;2023-03-20T06:17:01;95560.28;;;10.27;53.13
34742;BME280;20968;42.696;23.360;2023-03-20T06:19:26;95563.69;;;10.22;53.26
34742;BME280;20968;42.696;23.360;2023-03-20T06:21:52;95573.53;;;10.38;53.87
34742;BME280;20968;42.696;23.360;2023-03-20T06:24:17;95564.22;;;10.35;53.40
34742;BME280;20968;42.696;23.360;2023-03-20T06:26:45;95559.78;;;10.38;53.09
34742;BME280;20968;42.696;23.360;2023-03-20T06:29:10;95570.63;;;10.41;52.80
34742;BME280;20968;42.696;23.360;2023-03-20T06:31:36;95572.44;;;10.44;52.94
34742;BME280;20968;42.696;23.360;2023-03-20T06:34:01;95566.69;;;10.33;52.88
34742;BME280;20968;42.696;23.360;2023-03-20T06:36:27;95556.75;;;10.36;52.75
34742;BME280;20968;42.696;23.360;2023-03-20T06:38:55;95575.91;;;10.54;52.46
34742;BME280;20968;42.696;23.360;2023-03-20T06:41:22;95577.84;;;10.62;52.19
34742;BME280;20968;42.696;23.360;2023-03-20T06:43:47;95575.03;;;10.71;51.89
34742;BME280;20968;42.696;23.360;2023-03-20T06:46:13;95580.13;;;10.87;52.27
34742;BME280;20968;42.696;23.360;2023-03-20T06:48:39;95566.94;;;10.91;52.33
34742;BME280;20968;42.696;23.360;2023-03-20T06:51:05;95578.00;;;11.05;52.34
34742;BME280;20968;42.696;23.360;2023-03-20T06:53:30;95561.75;;;11.07;52.24
34742;BME280;20968;42.696;23.360;2023-03-20T06:55:55;95555.13;;;11.14;52.11
34742;BME280;20968;42.696;23.360;2023-03-20T06:58:21;95565.13;;;11.26;52.09
34742;BME280;20968;42.696;23.360;2023-03-20T07:00:46;95559.41;;;11.29;51.85
34742;BME280;20968;42.696;23.360;2023-03-20T07:03:12;95557.63;;;11.41;51.73
34742;BME280;20968;42.696;23.360;2023-03-20T07:05:38;95563.75;;;11.59;51.93
34742;BME280;20968;42.696;23.360;2023-03-20T07:08:04;95554.72;;;11.59;51.16
34742;BME280;20968;42.696;23.360;2023-03-20T07:10:31;95564.06;;;11.75;51.58
34742;BME280;20968;42.696;23.360;2023-03-20T07:12:57;95562.31;;;11.92;51.49
34742;BME280;20968;42.696;23.360;2023-03-20T07:15:22;95555.50;;;11.88;50.74
34742;BME280;20968;42.696;23.360;2023-03-20T07:17:48;95560.69;;;12.00;50.31
34742;BME280;20968;42.696;23.360;2023-03-20T07:20:14;95557.84;;;12.09;51.00
34742;BME280;20968;42.696;23.360;2023-03-20T07:22:40;95551.47;;;12.18;50.70
34742;BME280;20968;42.696;23.360;2023-03-20T07:25:12;95538.09;;;12.16;50.08
34742;BME280;20968;42.696;23.360;2023-03-20T07:27:58;95544.56;;;12.28;50.36
34742;BME280;20968;42.696;23.360;2023-03-20T07:30:24;95545.78;;;12.41;50.07
34742;BME280;20968;42.696;23.360;2023-03-20T07:32:50;95553.03;;;12.58;49.62
34742;BME280;20968;42.696;23.360;2023-03-20T07:35:15;95548.50;;;12.55;49.10
34742;BME280;20968;42.696;23.360;2023-03-20T07:37:44;95553.69;;;12.68;49.46
34742;BME280;20968;42.696;23.360;2023-03-20T07:40:10;95554.19;;;12.86;49.16
34742;BME280;20968;42.696;23.360;2023-03-20T07:42:35;95550.75;;;12.91;49.53
34742;BME280;20968;42.696;23.360;2023-03-20T07:45:01;95554.94;;;13.07;49.18
34742;BME280;20968;42.696;23.360;2023-03-20T07:47:26;95551.22;;;13.10;47.30
34742;BME280;20968;42.696;23.360;2023-03-20T07:49:52;95554.59;;;13.19;47.91
34742;BME280;20968;42.696;23.360;2023-03-20T07:52:17;95556.72;;;13.29;47.66
34742;BME280;20968;42.696;23.360;2023-03-20T07:54:43;95555.19;;;13.48;46.40
34742;BME280;20968;42.696;23.360;2023-03-20T07:57:08;95546.72;;;13.57;45.95
34742;BME280;20968;42.696;23.360;2023-03-20T07:59:33;95557.44;;;13.75;46.44
34742;BME280;20968;42.696;23.360;2023-03-20T08:01:59;95554.78;;;13.86;46.00
34742;BME280;20968;42.696;23.360;2023-03-20T08:04:24;95542.88;;;14.05;57.03
34742;BME280;20968;42.696;23.360;2023-03-20T08:06:50;95551.72;;;14.40;47.20
34742;BME280;20968;42.696;23.360;2023-03-20T08:09:16;95559.38;;;14.56;44.96
34742;BME280;20968;42.696;23.360;2023-03-20T08:11:42;95558.41;;;14.59;44.65
34742;BME280;20968;42.696;23.360;2023-03-20T08:14:08;95542.78;;;14.62;44.08
34742;BME280;20968;42.696;23.360;2023-03-20T08:16:33;95541.34;;;14.72;44.63
34742;BME280;20968;42.696;23.360;2023-03-20T08:18:58;95546.72;;;14.91;43.42
34742;BME280;20968;42.696;23.360;2023-03-20T08:21:30;95545.75;;;15.00;43.79
34742;BME280;20968;42.696;23.360;2023-03-20T08:23:56;95542.03;;;15.08;44.00
34742;BME280;20968;42.696;23.360;2023-03-20T08:26:23;95551.91;;;15.20;42.96
34742;BME280;20968;42.696;23.360;2023-03-20T08:28:49;95548.66;;;15.27;43.27
34742;BME280;20968;42.696;23.360;2023-03-20T08:31:15;95551.28;;;15.47;42.92
34742;BME280;20968;42.696;23.360;2023-03-20T08:33:45;95546.25;;;15.62;42.34
34742;BME280;20968;42.696;23.360;2023-03-20T08:36:11;95551.34;;;15.74;42.89
34742;BME280;20968;42.696;23.360;2023-03-20T08:38:39;95553.88;;;15.78;42.11
34742;BME280;20968;42.696;23.360;2023-03-20T08:41:27;95541.75;;;15.81;41.96
34742;BME280;20968;42.696;23.360;2023-03-20T08:44:03;95546.81;;;15.99;41.91
34742;BME280;20968;42.696;23.360;2023-03-20T08:46:29;95544.81;;;16.16;42.40
34742;BME280;20968;42.696;23.360;2023-03-20T08:48:54;95541.78;;;16.25;41.74
34742;BME280;20968;42.696;23.360;2023-03-20T08:51:20;95539.22;;;16.27;42.55
34742;BME280;20968;42.696;23.360;2023-03-20T08:53:46;95544.78;;;16.48;41.80
34742;BME280;20968;42.696;23.360;2023-03-20T08:56:12;95548.84;;;16.69;41.53
34742;BME280;20968;42.696;23.360;2023-03-20T08:58:37;95535.66;;;16.81;41.02
34742;BME280;20968;42.696;23.360;2023-03-20T09:01:07;95550.03;;;16.96;40.69
34742;BME280;20968;42.696;23.360;2023-03-20T09:03:33;95535.59;;;16.97;40.40
34742;BME280;20968;42.696;23.360;2023-03-20T09:05:59;95531.75;;;17.06;40.23
34742;BME280;20968;42.696;23.360;2023-03-20T09:08:28;95519.06;;;17.15;38.63
34742;BME280;20968;42.696;23.360;2023-03-20T09:10:53;95530.94;;;17.32;38.58
34742;BME280;20968;42.696;23.360;2023-03-20T09:13:19;95512.44;;;17.24;37.85
34742;BME280;20968;42.696;23.360;2023-03-20T09:15:45;95523.81;;;17.37;37.44
34742;BME280;20968;42.696;23.360;2023-03-20T09:18:10;95518.47;;;17.39;39.08
34742;BME280;20968;42.696;23.360;2023-03-20T09:20:36;95518.72;;;17.46;38.40
34742;BME280;20968;42.696;23.360;2023-03-20T09:23:01;95521.53;;;17.35;38.23
34742;BME280;20968;42.696;23.360;2023-03-20T09:25:27;95519.78;;;17.32;38.52
34742;BME280;20968;42.696;23.360;2023-03-20T09:27:53;95522.56;;;17.38;37.96
34742;BME280;20968;42.696;23.360;2023-03-20T09:33:43;95501.56;;;17.37;38.18
34742;BME280;20968;42.696;23.360;2023-03-20T09:36:08;95492.53;;;17.60;38.11
34742;BME280;20968;42.696;23.360;2023-03-20T09:38:36;95504.09;;;17.75;38.94
34742;BME280;20968;42.696;23.360;2023-03-20T09:52:33;95477.75;;;18.88;35.70
34742;BME280;20968;42.696;23.360;2023-03-20T09:55:04;95464.22;;;18.92;36.88
34742;BME280;20968;42.696;23.360;2023-03-20T09:57:39;95456.41;;;19.09;35.91
34742;BME280;20968;42.696;23.360;2023-03-20T10:00:11;95445.13;;;19.38;34.92
34742;BME280;20968;42.696;23.360;2023-03-20T10:02:45;95442.88;;;19.55;34.29
34742;BME280;20968;42.696;23.360;2023-03-20T10:05:25;95440.28;;;19.57;36.12
34742;BME280;20968;42.696;23.360;2023-03-20T10:07:57;95428.00;;;19.29;35.23
34742;BME280;20968;42.696;23.360;2023-03-20T10:10:35;95421.56;;;19.34;35.62
34742;BME280;20968;42.696;23.360;2023-03-20T10:13:21;95428.06;;;19.23;36.63
34742;BME280;20968;42.696;23.360;2023-03-20T10:16:18;95416.00;;;19.34;35.92
34742;BME280;20968;42.696;23.360;2023-03-20T10:18:54;95416.94;;;19.54;35.42
34742;BME280;20968;42.696;23.360;2023-03-20T10:21:43;95413.84;;;19.58;36.48
34742;BME280;20968;42.696;23.360;2023-03-20T10:24:16;95409.81;;;19.72;35.74
34742;BME280;20968;42.696;23.360;2023-03-20T10:26:50;95403.84;;;19.94;35.93
34742;BME280;20968;42.696;23.360;2023-03-20T10:32:13;95406.56;;;20.31;33.93
34742;BME280;20968;42.696;23.360;2023-03-20T10:39:47;95397.75;;;20.91;33.73
34742;BME280;20968;42.696;23.360;2023-03-20T10:42:24;95380.72;;;21.02;32.51
34742;BME280;20968;42.696;23.360;2023-03-20T10:45:00;95386.28;;;21.15;31.75
34742;BME280;20968;42.696;23.360;2023-03-20T10:54:04;95371.63;;;21.22;30.54
34742;BME280;20968;42.696;23.360;2023-03-20T10:56:43;95364.13;;;21.37;30.52
34742;BME280;20968;42.696;23.360;2023-03-20T10:59:21;95360.94;;;21.33;30.92
34742;BME280;20968;42.696;23.360;2023-03-20T11:01:47;95362.38;;;21.47;30.67
34742;BME280;20968;42.696;23.360;2023-03-20T11:04:13;95353.53;;;21.43;31.00
34742;BME280;20968;42.696;23.360;2023-03-20T11:09:26;95344.56;;;21.58;30.97
34742;BME280;20968;42.696;23.360;2023-03-20T11:11:59;95344.84;;;21.67;29.93
34742;BME280;20968;42.696;23.360;2023-03-20T11:14:32;95352.84;;;21.63;30.02
34742;BME280;20968;42.696;23.360;2023-03-20T11:17:01;95331.03;;;21.69;30.47
34742;BME280;20968;42.696;23.360;2023-03-20T11:19:35;95330.56;;;21.78;29.58
34742;BME280;20968;42.696;23.360;2023-03-20T11:22:21;95328.63;;;21.93;30.08
34742;BME280;20968;42.696;23.360;2023-03-20T11:24:53;95319.22;;;22.32;30.23
34742;BME280;20968;42.696;23.360;2023-03-20T11:27:24;95319.84;;;22.45;29.56
34742;BME280;20968;42.696;23.360;2023-03-20T11:29:51;95311.81;;;22.49;29.50
34742;BME280;20968;42.696;23.360;2023-03-20T11:32:39;95311.69;;;22.62;29.76
34742;BME280;20968;42.696;23.360;2023-03-20T11:37:53;95293.09;;;22.87;29.71
34742;BME280;20968;42.696;23.360;2023-03-20T11:40:32;95285.13;;;23.06;29.10
34742;BME280;20968;42.696;23.360;2023-03-20T11:45:33;95282.34;;;23.21;28.14
34742;BME280;20968;42.696;23.360;2023-03-20T11:48:00;95283.53;;;23.40;27.66
34742;BME280;20968;42.696;23.360;2023-03-20T11:50:31;95279.41;;;23.56;26.97
34742;BME280;20968;42.696;23.360;2023-03-20T11:53:04;95268.00;;;23.61;26.74
34742;BME280;20968;42.696;23.360;2023-03-20T11:55:45;95259.78;;;23.78;26.56
34742;BME280;20968;42.696;23.360;2023-03-20T11:58:22;95251.88;;;23.99;26.42
34742;BME280;20968;42.696;23.360;2023-03-20T12:00:50;95251.84;;;24.14;26.30
34742;BME280;20968;42.696;23.360;2023-03-20T12:03:44;95252.63;;;24.07;27.56
34742;BME280;20968;42.696;23.360;2023-03-20T12:06:19;95252.22;;;24.26;25.79
34742;BME280;20968;42.696;23.360;2023-03-20T12:08:49;95243.56;;;24.31;24.27
34742;BME280;20968;42.696;23.360;2023-03-20T12:11:39;95246.78;;;24.13;23.78
34742;BME280;20968;42.696;23.360;2023-03-20T12:14:14;95226.56;;;23.92;23.56
34742;BME280;20968;42.696;23.360;2023-03-20T12:16:42;95235.19;;;24.01;23.10
34742;BME280;20968;42.696;23.360;2023-03-20T12:19:16;95221.06;;;24.09;24.14
34742;BME280;20968;42.696;23.360;2023-03-20T12:21:51;95215.06;;;24.20;24.67
34742;BME280;20968;42.696;23.360;2023-03-20T12:24:30;95221.94;;;24.48;24.32
34742;BME280;20968;42.696;23.360;2023-03-20T12:27:23;95220.56;;;24.64;24.19
34742;BME280;20968;42.696;23.360;2023-03-20T12:29:54;95218.06;;;24.76;21.79
34742;BME280;20968;42.696;23.360;2023-03-20T12:35:03;95204.00;;;24.68;21.68
34742;BME280;20968;42.696;23.360;2023-03-20T12:37:30;95207.41;;;24.67;22.52
34742;BME280;20968;42.696;23.360;2023-03-20T12:39:58;95206.34;;;24.55;22.04
34742;BME280;20968;42.696;23.360;2023-03-20T12:45:10;95199.88;;;24.69;22.43
34742;BME280;20968;42.696;23.360;2023-03-20T12:50:38;95192.06;;;24.53;21.87
34742;BME280;20968;42.696;23.360;2023-03-20T12:56:12;95187.03;;;24.36;22.22
34742;BME280;20968;42.696;23.360;2023-03-20T12:59:03;95180.81;;;24.45;22.90
34742;BME280;20968;42.696;23.360;2023-03-20T13:07:02;95171.63;;;24.45;21.30
34742;BME280;20968;42.696;23.360;2023-03-20T13:13:18;95163.50;;;24.56;21.97
34742;BME280;20968;42.696;23.360;2023-03-20T13:16:15;95158.59;;;24.64;22.38
34742;BME280;20968;42.696;23.360;2023-03-20T13:21:27;95149.13;;;24.30;22.11
34742;BME280;20968;42.696;23.360;2023-03-20T13:24:21;95139.94;;;24.30;22.21
34742;BME280;20968;42.696;23.360;2023-03-20T13:27:05;95142.91;;;24.39;23.18
34742;BME280;20968;42.696;23.360;2023-03-20T13:38:05;95126.78;;;24.32;22.28
34742;BME280;20968;42.696;23.360;2023-03-20T13:40:36;95116.09;;;24.31;22.74
34742;BME280;20968;42.696;23.360;2023-03-20T13:43:18;95118.91;;;24.31;23.54
34742;BME280;20968;42.696;23.360;2023-03-20T13:45:47;95107.88;;;24.25;22.55
34742;BME280;20968;42.696;23.360;2023-03-20T13:48:29;95108.97;;;24.30;22.79
34742;BME280;20968;42.696;23.360;2023-03-20T13:54:30;95110.69;;;24.18;23.01
34742;BME280;20968;42.696;23.360;2023-03-20T13:59:39;95111.75;;;23.90;22.45
34742;BME280;20968;42.696;23.360;2023-03-20T14:04:33;95098.81;;;23.80;21.89
34742;BME280;20968;42.696;23.360;2023-03-20T14:07:29;95095.66;;;23.76;21.60
34742;BME280;20968;42.696;23.360;2023-03-20T14:09:55;95089.47;;;23.77;22.21
34742;BME280;20968;42.696;23.360;2023-03-20T14:12:25;95090.38;;;23.80;22.15
34742;BME280;20968;42.696;23.360;2023-03-20T14:14:54;95084.03;;;23.79;22.28
34742;BME280;20968;42.696;23.360;2023-03-20T14:17:28;95079.66;;;23.93;22.44
34742;BME280;20968;42.696;23.360;2023-03-20T14:19:55;95074.41;;;23.90;21.53
34742;BME280;20968;42.696;23.360;2023-03-20T14:22:26;95078.94;;;23.85;21.92
34742;BME280;20968;42.696;23.360;2023-03-20T14:24:57;95071.59;;;23.90;22.45
34742;BME280;20968;42.696;23.360;2023-03-20T14:27:27;95063.22;;;23.75;22.68
34742;BME280;20968;42.696;23.360;2023-03-20T14:29:53;95071.66;;;23.75;21.38
34742;BME280;20968;42.696;23.360;2023-03-20T14:34:58;95062.44;;;23.74;21.84
34742;BME280;20968;42.696;23.360;2023-03-20T14:40:15;95064.50;;;23.81;21.98
34742;BME280;20968;42.696;23.360;2023-03-20T14:48:08;95050.84;;;23.63;22.79
34742;BME280;20968;42.696;23.360;2023-03-20T14:50:40;95056.09;;;23.74;22.15
34742;BME280;20968;42.696;23.360;2023-03-20T15:03:51;95047.34;;;23.25;21.38
34742;BME280;20968;42.696;23.360;2023-03-20T15:06:20;95049.44;;;23.10;21.70
34742;BME280;20968;42.696;23.360;2023-03-20T15:08:58;95050.56;;;22.99;21.90
34742;BME280;20968;42.696;23.360;2023-03-20T15:11:25;95058.78;;;22.82;22.35
34742;BME280;20968;42.696;23.360;2023-03-20T15:13:51;95053.53;;;22.72;22.91
34742;BME280;20968;42.696;23.360;2023-03-20T15:16:29;95058.75;;;22.60;22.02
34742;BME280;20968;42.696;23.360;2023-03-20T15:18:55;95051.09;;;22.46;22.17